• Join FlightAware (Why Join?)
  • Login
  • US Flag 
02:49AM EDT


 

Airport Tracker/Info


-or-


 

Live Flight TrackerFlight Track Log ✈ HYD40 ✈ 04-Jul-2013 ✈ CYQB - CYUL

Flight Track Log - Related Links

Times and Time Zones

All times are in EDT time to prevent confusion due to time zone crossing. See the HYD40 flight status page for this flight to view local times or setup timezone preferences in your user account.

Time Position Orientation Groundspeed Altitude Reporting Facility
EDT Latitude Longitude Course Direction KTS MPH feet Rate Location/Type
03:06PM 46.7667 -71.4500 250° West 150 173 2,400  Level Montreal Center
03:07PM 46.7667 -71.5000 270° West 160 184 4,000 1,500 Climbing Montreal Center
03:08PM 46.7500 -71.5667 250° West 170 196 5,500 1,440 Climbing Montreal Center
03:09PM 46.7167 -71.5833 199° South 170 196 6,900 1,500 Climbing Montreal Center
03:10PM 46.5150 -71.7456 224° Southwest  Level FlightAware Approximate
03:10PM 46.6667 -71.6333 214° Southwest 170 196 8,500  Level Montreal Center
03:11PM 46.6333 -71.6667 214° Southwest 170 196 9,800 1,260 Climbing Montreal Center
03:12PM 46.6000 -71.7167 226° Southwest 180 207 11,100 1,200 Climbing Montreal Center
03:13PM 46.5500 -71.7500 205° Southwest 180 207 12,200 900 Climbing Montreal Center
03:14PM 46.5000 -71.8000 215° Southwest 200 230 13,000 360 Climbing Montreal Center
03:15PM 46.4667 -71.8500 226° Southwest 220 253 13,000 480 Level Montreal Center
03:16PM 46.4000 -71.9333 221° Southwest 220 253 14,000 480 Climbing Montreal Center
03:17PM 46.3667 -71.9833 226° Southwest 220 253 14,000  Level Montreal Center
03:18PM 46.3333 -72.0500 234° Southwest 240 276 14,000  Level Montreal Center
03:19PM 46.2833 -72.1333 229° Southwest 240 276 14,000  Level Montreal Center
03:20PM 46.2333 -72.1833 215° Southwest 240 276 14,000  Level Montreal Center
03:21PM 46.1833 -72.2667 229° Southwest 250 288 14,000  Level Montreal Center
03:22PM 46.1333 -72.3333 223° Southwest 250 288 14,000  Level Montreal Center
03:23PM 46.0833 -72.4167 229° Southwest 240 276 14,000  Level Montreal Center
03:24PM 46.0333 -72.4667 215° Southwest 240 276 14,000  Level Montreal Center
03:25PM 45.9833 -72.5333 223° Southwest 240 276 14,000  Level Montreal Center
03:26PM 45.9500 -72.6167 240° Southwest 240 276 14,000  Level Montreal Center
03:27PM 45.9167 -72.6833 234° Southwest 240 276 14,000  Level Montreal Center
03:28PM 45.8833 -72.7833 244° Southwest 240 276 14,000 -60 Level Montreal Center
03:29PM 45.8333 -72.8667 229° Southwest 240 276 13,900 -720 Descending Montreal Center
03:30PM 45.7833 -72.9333 223° Southwest 260 299 12,600 -1,380 Descending Montreal Center
03:31PM 45.7500 -73.0333 244° Southwest 260 299 11,200 -1,380 Descending Montreal Center
03:32PM 45.7333 -73.1333 257° West 250 288 9,900 -1,380 Descending Montreal Center
03:33PM 45.7167 -73.2333 257° West 250 288 8,500 -1,440 Descending Montreal Center
03:34PM 45.6833 -73.3000 234° Southwest 250 288 7,100 -1,380 Descending Montreal Center
03:35PM 45.6667 -73.4000 257° West 230 265 5,800 -1,320 Descending Montreal Center
03:36PM 45.6333 -73.5000 245° Southwest 240 276 4,500 -1,260 Descending Montreal Center
03:37PM 45.6000 -73.5500 226° Southwest 210 242 3,300 -1,200 Descending Montreal Center
03:38PM 45.5500 -73.6167 223° Southwest 210 242 2,200 -1,080 Descending Montreal Center
03:39PM 45.5167 -73.6667 226° Southwest 200 230 1,200 -900 Descending Montreal Center
03:40PM 45.4833 -73.7167 226° Southwest 120 138 400 -600 Descending Montreal Center
03:41PM 45.4667 -73.7500 235° Southwest 80 92 100 -180 Descending Montreal Center
03:42PM 45.4667 -73.7167 90° East 20 23 100  Level Montreal Center